Time;durP1;ratioP1;P1;durP2;ratioP2;P2;SDS_P1;SDS_P2;PMS_P1;PMS_P2;Temp;Humidity;BMP_temperature;BMP_pressure;BME280_temperature;BME280_humidity;BME280_pressure;Samples;Min_cycle;Max_cycle;Signal;HPM_P1;HPM_P2
2022/08/08 00:00:16;;;;;;;7.25;4.75;;;;;;;;;;1691579;83;21044;-66
2022/08/08 00:03:01;;;;;;;7.22;4.47;;;;;;;;;;1714709;82;21151;-64
2022/08/08 00:05:37;;;;;;;7.75;4.78;;;;;;;;;;1681208;85;21002;-67
2022/08/08 00:08:11;;;;;;;7.87;5.05;;;;;;;;;;1728434;82;21171;-67
2022/08/08 00:10:41;;;;;;;7.03;5.17;;;;;;;;;;1638792;86;21143;-67
2022/08/08 00:13:09;;;;;;;8.65;4.45;;;;;;;;;;1713386;82;21076;-67
2022/08/08 00:15:40;;;;;;;6.20;4.60;;;;;;;;;;1685635;85;21050;-67
2022/08/08 00:18:08;;;;;;;6.08;4.50;;;;;;;;;;1718543;82;21112;-67
2022/08/08 00:20:37;;;;;;;5.80;4.33;;;;;;;;;;1729841;82;21154;-67
2022/08/08 00:23:04;;;;;;;8.43;4.80;;;;;;;;;;1664545;84;21086;-67
2022/08/08 00:25:32;;;;;;;5.22;4.15;;;;;;;;;;1737736;82;21057;-67
2022/08/08 00:27:59;;;;;;;5.80;4.28;;;;;;;;;;1665630;84;21081;-67
2022/08/08 00:30:25;;;;;;;6.58;4.42;;;;;;;;;;1715967;82;21044;-67
2022/08/08 00:33:01;;;;;;;7.25;4.72;;;;;;;;;;1663514;84;21098;-67
2022/08/08 00:35:30;;;;;;;6.37;4.10;;;;;;;;;;1653559;85;21131;-66
2022/08/08 00:38:15;;;;;;;5.75;4.10;;;;;;;;;;1676190;84;21573;-67
2022/08/08 00:40:43;;;;;;;6.10;5.12;;;;;;;;;;1663059;85;21106;-67
2022/08/08 00:43:28;;;;;;;8.35;5.60;;;;;;;;;;1722424;82;21033;-66
2022/08/08 00:45:59;;;;;;;8.38;4.65;;;;;;;;;;1728448;82;21100;-66
2022/08/08 00:48:36;;;;;;;7.05;4.75;;;;;;;;;;1658604;85;21033;-67
2022/08/08 00:51:21;;;;;;;7.17;4.65;;;;;;;;;;1726677;82;21116;-67
2022/08/08 00:53:50;;;;;;;6.92;5.42;;;;;;;;;;1708334;82;21026;-66
2022/08/08 00:56:27;;;;;;;8.58;5.05;;;;;;;;;;1664438;82;20993;-67
2022/08/08 00:58:57;;;;;;;9.65;6.30;;;;;;;;;;1668473;85;21570;-68
2022/08/08 01:04:32;;;;;;;10.35;6.55;;;;;;;;;;1744287;80;72792;-67
2022/08/08 01:07:02;;;;;;;9.30;5.62;;;;;;;;;;1748173;80;21038;-66
2022/08/08 01:09:49;;;;;;;10.82;5.45;;;;;;;;;;1751112;80;21008;-66
2022/08/08 01:12:37;;;;;;;8.35;5.72;;;;;;;;;;1748438;80;21203;-66
2022/08/08 01:15:22;;;;;;;11.45;6.37;;;;;;;;;;1749634;80;21499;-67
2022/08/08 01:17:53;;;;;;;9.33;5.33;;;;;;;;;;1750308;80;21046;-66
2022/08/08 01:20:39;;;;;;;7.78;5.30;;;;;;;;;;1760743;81;21071;-66
2022/08/08 01:23:12;;;;;;;6.60;5.15;;;;;;;;;;1765248;81;21031;-66
2022/08/08 01:25:46;;;;;;;10.30;6.78;;;;;;;;;;1745103;81;21096;-66
2022/08/08 01:28:25;;;;;;;6.65;5.78;;;;;;;;;;1751401;80;21033;-66
2022/08/08 01:30:54;;;;;;;9.00;4.83;;;;;;;;;;1744729;82;21045;-66
2022/08/08 01:33:24;;;;;;;7.97;4.90;;;;;;;;;;1751294;81;21061;-66
2022/08/08 01:35:54;;;;;;;13.43;5.20;;;;;;;;;;1764396;81;21085;-65
2022/08/08 01:38:28;;;;;;;8.43;6.10;;;;;;;;;;1753275;80;21042;-66
2022/08/08 01:41:06;;;;;;;8.58;5.58;;;;;;;;;;1749340;80;21078;-66
2022/08/08 01:43:36;;;;;;;9.95;5.53;;;;;;;;;;1750415;80;22058;-66
2022/08/08 01:46:21;;;;;;;10.58;6.47;;;;;;;;;;1750194;80;22265;-66
2022/08/08 01:48:52;;;;;;;9.48;6.58;;;;;;;;;;1751966;80;21081;-66
2022/08/08 01:51:20;;;;;;;10.48;5.83;;;;;;;;;;1751916;80;21073;-66
2022/08/08 01:53:49;;;;;;;10.30;5.60;;;;;;;;;;1749455;80;21030;-67
2022/08/08 01:56:17;;;;;;;9.03;6.17;;;;;;;;;;1751590;80;21036;-66
2022/08/08 01:58:45;;;;;;;8.70;6.35;;;;;;;;;;1748914;80;22212;-67
2022/08/08 02:01:21;;;;;;;12.35;5.72;;;;;;;;;;1746099;80;21056;-66
2022/08/08 02:03:50;;;;;;;8.70;6.28;;;;;;;;;;1743913;80;21083;-67
2022/08/08 02:06:35;;;;;;;8.45;6.62;;;;;;;;;;1750705;80;21091;-67
2022/08/08 02:09:06;;;;;;;9.28;6.80;;;;;;;;;;1740078;80;21157;-67
2022/08/08 02:11:37;;;;;;;10.32;5.60;;;;;;;;;;1735393;81;22560;-66
2022/08/08 02:14:05;;;;;;;14.15;6.20;;;;;;;;;;1733928;81;21056;-67
2022/08/08 02:16:45;;;;;;;11.05;6.45;;;;;;;;;;1724726;82;21504;-67
2022/08/08 02:19:13;;;;;;;8.68;5.78;;;;;;;;;;1713691;82;21084;-66
2022/08/08 02:24:49;;;;;;;8.43;5.80;;;;;;;;;;1630071;86;21329;-67
2022/08/08 02:27:20;;;;;;;9.93;6.08;;;;;;;;;;1608524;89;21085;-67
2022/08/08 02:29:51;;;;;;;7.42;5.53;;;;;;;;;;1695756;82;21528;-67
2022/08/08 02:32:32;;;;;;;10.20;7.00;;;;;;;;;;1742571;82;21061;-67
2022/08/08 02:35:03;;;;;;;8.63;7.10;;;;;;;;;;1719441;81;21045;-67
2022/08/08 02:37:33;;;;;;;11.28;5.95;;;;;;;;;;1703838;82;21073;-68
2022/08/08 02:40:05;;;;;;;8.68;6.03;;;;;;;;;;1735614;81;21555;-67
2022/08/08 02:42:51;;;;;;;8.15;5.62;;;;;;;;;;1734716;80;21040;-68
2022/08/08 02:45:36;;;;;;;8.58;6.03;;;;;;;;;;1734139;81;21503;-67
2022/08/08 02:48:11;;;;;;;8.13;6.17;;;;;;;;;;1730064;81;21064;-67
2022/08/08 02:50:49;;;;;;;8.15;5.42;;;;;;;;;;1730530;81;21164;-67
2022/08/08 02:53:32;;;;;;;9.68;5.58;;;;;;;;;;1731853;80;21065;-67
2022/08/08 02:56:10;;;;;;;7.78;5.70;;;;;;;;;;1736271;81;21025;-67
2022/08/08 02:58:55;;;;;;;6.90;5.67;;;;;;;;;;1730434;81;21060;-67
2022/08/08 03:01:29;;;;;;;9.60;6.30;;;;;;;;;;1687937;84;21068;-68
2022/08/08 03:04:14;;;;;;;8.58;5.60;;;;;;;;;;1704596;82;21062;-67
2022/08/08 03:06:42;;;;;;;8.88;6.35;;;;;;;;;;1695228;82;20997;-67
2022/08/08 03:09:27;;;;;;;7.80;6.55;;;;;;;;;;1708231;83;21012;-67
2022/08/08 03:12:05;;;;;;;7.92;6.20;;;;;;;;;;1728976;82;21081;-67
2022/08/08 03:14:36;;;;;;;6.53;5.28;;;;;;;;;;1712435;83;21524;-67
2022/08/08 03:17:10;;;;;;;7.33;5.22;;;;;;;;;;1712737;82;21041;-67
2022/08/08 03:19:55;;;;;;;6.58;4.80;;;;;;;;;;1691729;83;21072;-67
2022/08/08 03:22:21;;;;;;;7.50;5.83;;;;;;;;;;1707304;83;21116;-67
2022/08/08 03:24:49;;;;;;;11.12;5.20;;;;;;;;;;1690399;84;21571;-67
2022/08/08 03:27:17;;;;;;;10.00;6.53;;;;;;;;;;1708177;82;21817;-67
2022/08/08 03:29:45;;;;;;;9.20;6.90;;;;;;;;;;1661870;84;21050;-66
2022/08/08 03:34:57;;;;;;;8.48;5.85;;;;;;;;;;1671846;84;21074;-67
2022/08/08 03:37:25;;;;;;;7.92;5.40;;;;;;;;;;1717732;83;21608;-67
2022/08/08 03:39:51;;;;;;;7.83;6.47;;;;;;;;;;1687704;85;21017;-66
2022/08/08 03:42:17;;;;;;;7.45;5.00;;;;;;;;;;1674793;85;21090;-66
2022/08/08 03:44:43;;;;;;;7.28;5.50;;;;;;;;;;1705036;83;21046;-67
2022/08/08 03:47:10;;;;;;;8.35;6.10;;;;;;;;;;1707586;84;21065;-67
2022/08/08 03:49:36;;;;;;;9.00;5.25;;;;;;;;;;1705076;83;21061;-66
2022/08/08 03:52:03;;;;;;;9.88;6.05;;;;;;;;;;1684558;84;21057;-66
2022/08/08 03:54:29;;;;;;;8.25;6.90;;;;;;;;;;1707215;84;21564;-67
2022/08/08 03:56:57;;;;;;;10.20;6.28;;;;;;;;;;1707229;84;21037;-68
2022/08/08 03:59:29;;;;;;;10.08;5.50;;;;;;;;;;1689502;84;21461;-67
2022/08/08 04:01:56;;;;;;;10.15;5.53;;;;;;;;;;1707005;84;21556;-67
2022/08/08 04:04:23;;;;;;;9.00;5.60;;;;;;;;;;1710198;82;21093;-67
2022/08/08 04:06:56;;;;;;;11.97;8.40;;;;;;;;;;1650560;85;21597;-67
2022/08/08 04:09:24;;;;;;;7.67;5.50;;;;;;;;;;1672552;85;21600;-67
2022/08/08 04:11:50;;;;;;;9.83;6.40;;;;;;;;;;1652937;86;21032;-68
2022/08/08 04:14:17;;;;;;;10.63;6.62;;;;;;;;;;1698826;84;21068;-68
2022/08/08 04:16:43;;;;;;;10.50;6.85;;;;;;;;;;1699705;83;21056;-67
2022/08/08 04:19:10;;;;;;;7.37;5.50;;;;;;;;;;1700401;83;21045;-67
2022/08/08 04:21:38;;;;;;;7.45;5.20;;;;;;;;;;1671822;84;21084;-67
2022/08/08 04:24:05;;;;;;;10.63;5.85;;;;;;;;;;1699016;83;21052;-67
2022/08/08 04:26:32;;;;;;;9.85;6.67;;;;;;;;;;1689090;85;21008;-67
2022/08/08 04:28:59;;;;;;;9.50;5.60;;;;;;;;;;1688923;85;21022;-67
2022/08/08 04:31:26;;;;;;;7.80;5.35;;;;;;;;;;1704947;83;21051;-67
2022/08/08 04:33:52;;;;;;;8.15;6.47;;;;;;;;;;1718104;82;21040;-67
2022/08/08 04:36:18;;;;;;;10.18;7.03;;;;;;;;;;1717611;83;21052;-67
2022/08/08 04:38:44;;;;;;;7.53;5.08;;;;;;;;;;1717676;83;21008;-67
2022/08/08 04:41:11;;;;;;;9.25;5.33;;;;;;;;;;1717704;82;21020;-67
2022/08/08 04:43:37;;;;;;;8.58;5.58;;;;;;;;;;1717711;82;21080;-68
2022/08/08 04:46:04;;;;;;;7.67;5.25;;;;;;;;;;1702619;83;21045;-67
2022/08/08 04:48:31;;;;;;;10.05;6.30;;;;;;;;;;1705295;82;21137;-67
2022/08/08 04:50:58;;;;;;;7.53;5.03;;;;;;;;;;1704801;83;21988;-67
2022/08/08 04:53:26;;;;;;;8.48;5.12;;;;;;;;;;1674587;85;21124;-67
2022/08/08 04:55:52;;;;;;;11.70;7.05;;;;;;;;;;1661163;85;21097;-67
2022/08/08 04:58:18;;;;;;;9.28;5.87;;;;;;;;;;1692344;84;21491;-67
2022/08/08 05:00:45;;;;;;;9.63;5.72;;;;;;;;;;1689015;85;21102;-67
2022/08/08 05:03:12;;;;;;;9.05;7.03;;;;;;;;;;1706490;82;21151;-67
2022/08/08 05:05:38;;;;;;;14.18;9.25;;;;;;;;;;1706142;82;21583;-66
2022/08/08 05:08:06;;;;;;;10.00;7.00;;;;;;;;;;1704324;83;21112;-67
2022/08/08 05:10:33;;;;;;;8.03;5.60;;;;;;;;;;1714825;83;21551;-67
2022/08/08 05:13:01;;;;;;;8.30;5.55;;;;;;;;;;1703096;82;22082;-66
2022/08/08 05:15:28;;;;;;;10.05;6.17;;;;;;;;;;1717948;83;21064;-67
2022/08/08 05:19:55;;;;;;;10.10;6.22;;;;;;;;;;1819298;79;23478;-64
2022/08/08 05:22:29;;;;;;;8.33;5.90;;;;;;;;;;1787734;80;21499;-65
2022/08/08 05:24:57;;;;;;;9.70;6.97;;;;;;;;;;1789995;80;21096;-65
2022/08/08 05:27:23;;;;;;;8.68;5.58;;;;;;;;;;1788163;79;21076;-65
2022/08/08 05:29:51;;;;;;;7.62;5.58;;;;;;;;;;1777529;80;21000;-66
2022/08/08 05:32:17;;;;;;;9.70;6.00;;;;;;;;;;1769045;79;21058;-66
2022/08/08 05:34:47;;;;;;;8.05;6.22;;;;;;;;;;1780352;80;21120;-65
2022/08/08 05:37:17;;;;;;;9.93;6.87;;;;;;;;;;1776505;80;20992;-65
2022/08/08 05:39:45;;;;;;;10.55;7.12;;;;;;;;;;1779378;80;21059;-65
2022/08/08 05:42:11;;;;;;;8.60;6.00;;;;;;;;;;1776580;79;21000;-65
2022/08/08 05:44:39;;;;;;;9.05;6.58;;;;;;;;;;1773263;80;21073;-66
2022/08/08 05:47:06;;;;;;;11.50;6.75;;;;;;;;;;1773240;80;21865;-67
2022/08/08 05:49:33;;;;;;;11.60;7.08;;;;;;;;;;1778301;80;21054;-67
2022/08/08 05:51:59;;;;;;;10.15;6.33;;;;;;;;;;1775042;80;21028;-66
2022/08/08 05:54:26;;;;;;;10.65;6.78;;;;;;;;;;1778917;80;21060;-67
2022/08/08 05:56:54;;;;;;;10.45;7.37;;;;;;;;;;1776562;79;21023;-67
2022/08/08 05:59:22;;;;;;;9.73;7.78;;;;;;;;;;1773259;80;21032;-66
2022/08/08 06:01:53;;;;;;;10.53;6.40;;;;;;;;;;1778662;80;21031;-66
2022/08/08 06:04:26;;;;;;;10.20;7.28;;;;;;;;;;1784852;78;21053;-67
2022/08/08 06:06:55;;;;;;;10.98;6.95;;;;;;;;;;1787674;80;21036;-66
2022/08/08 06:09:22;;;;;;;10.18;7.67;;;;;;;;;;1772728;80;20977;-66
2022/08/08 06:11:49;;;;;;;11.03;6.85;;;;;;;;;;1776021;80;21014;-66
2022/08/08 06:14:15;;;;;;;10.53;6.67;;;;;;;;;;1772932;78;21086;-66
2022/08/08 06:16:41;;;;;;;12.93;7.85;;;;;;;;;;1783938;78;22102;-66
2022/08/08 06:19:09;;;;;;;11.00;7.58;;;;;;;;;;1775672;79;21057;-66
2022/08/08 06:21:37;;;;;;;10.50;7.20;;;;;;;;;;1785350;79;21057;-66
2022/08/08 06:24:05;;;;;;;9.63;6.67;;;;;;;;;;1779485;79;21504;-65
2022/08/08 06:26:36;;;;;;;11.22;6.80;;;;;;;;;;1779253;79;21048;-67
2022/08/08 06:29:08;;;;;;;10.03;7.83;;;;;;;;;;1815797;79;21565;-65
2022/08/08 06:31:35;;;;;;;8.68;6.40;;;;;;;;;;1805944;79;21008;-65
2022/08/08 06:34:10;;;;;;;12.07;8.28;;;;;;;;;;1800638;79;21092;-66
2022/08/08 06:36:37;;;;;;;10.28;7.35;;;;;;;;;;1793068;79;21028;-65
2022/08/08 06:39:04;;;;;;;10.72;7.08;;;;;;;;;;1776927;79;20958;-65
2022/08/08 06:54:21;;;;;;;8.93;7.20;;;;;;;;;;1785013;78;23012;-65
2022/08/08 06:56:48;;;;;;;10.55;7.25;;;;;;;;;;1765464;80;21036;-65
2022/08/08 06:59:15;;;;;;;13.03;7.10;;;;;;;;;;1764886;80;21052;-68
2022/08/08 07:01:43;;;;;;;10.85;7.58;;;;;;;;;;1764621;80;21576;-66
2022/08/08 07:04:12;;;;;;;15.83;7.90;;;;;;;;;;1765279;79;21048;-66
2022/08/08 07:06:40;;;;;;;10.23;7.67;;;;;;;;;;1764047;79;21035;-65
2022/08/08 07:09:08;;;;;;;9.70;8.30;;;;;;;;;;1765735;79;21035;-66
2022/08/08 07:11:36;;;;;;;11.88;7.47;;;;;;;;;;1767841;79;21036;-67
2022/08/08 07:14:03;;;;;;;12.33;7.35;;;;;;;;;;1762429;79;21087;-66
2022/08/08 07:16:41;;;;;;;10.75;7.40;;;;;;;;;;1767353;79;21110;-66
2022/08/08 07:19:09;;;;;;;11.05;7.17;;;;;;;;;;1770117;80;21040;-66
2022/08/08 07:21:38;;;;;;;8.60;7.70;;;;;;;;;;1766554;79;20996;-66
2022/08/08 07:24:15;;;;;;;10.10;8.33;;;;;;;;;;1774960;79;21035;-66
2022/08/08 07:26:46;;;;;;;9.88;7.42;;;;;;;;;;1769873;79;21518;-66
2022/08/08 07:29:13;;;;;;;9.90;8.10;;;;;;;;;;1767787;80;21028;-66
2022/08/08 07:31:40;;;;;;;9.15;7.78;;;;;;;;;;1763763;79;21514;-66
2022/08/08 07:34:07;;;;;;;8.38;6.10;;;;;;;;;;1763577;79;21032;-66
2022/08/08 07:36:33;;;;;;;9.65;7.33;;;;;;;;;;1740966;79;21043;-65
2022/08/08 07:39:00;;;;;;;9.05;7.97;;;;;;;;;;1747143;81;21031;-65
2022/08/08 07:41:26;;;;;;;10.78;8.55;;;;;;;;;;1704461;82;21060;-65
2022/08/08 07:43:55;;;;;;;9.35;8.03;;;;;;;;;;1744846;81;21028;-67
2022/08/08 07:46:21;;;;;;;9.30;6.85;;;;;;;;;;1728087;81;21611;-63
2022/08/08 07:48:49;;;;;;;12.30;7.80;;;;;;;;;;1731943;81;21028;-65
2022/08/08 07:51:16;;;;;;;13.18;8.83;;;;;;;;;;1737209;81;21111;-66
2022/08/08 07:53:46;;;;;;;9.73;7.55;;;;;;;;;;1767353;79;22234;-66
2022/08/08 07:56:13;;;;;;;10.78;7.95;;;;;;;;;;1779630;79;21572;-66
2022/08/08 07:58:41;;;;;;;8.53;6.72;;;;;;;;;;1774803;81;21041;-66
2022/08/08 08:01:19;;;;;;;9.25;7.20;;;;;;;;;;1776373;79;20986;-66
2022/08/08 08:03:54;;;;;;;9.45;8.28;;;;;;;;;;1774718;79;21508;-66
2022/08/08 08:06:21;;;;;;;8.85;6.87;;;;;;;;;;1785103;80;20998;-66
2022/08/08 08:09:08;;;;;;;10.40;8.30;;;;;;;;;;1780309;79;21028;-65
2022/08/08 08:11:35;;;;;;;9.55;7.87;;;;;;;;;;1776147;79;21058;-65
2022/08/08 08:14:04;;;;;;;12.75;8.53;;;;;;;;;;1783163;79;22296;-66
2022/08/08 08:16:35;;;;;;;12.00;9.43;;;;;;;;;;1792558;79;21040;-65
2022/08/08 08:19:03;;;;;;;10.70;8.50;;;;;;;;;;1777046;80;21555;-66
2022/08/08 08:21:40;;;;;;;11.22;8.45;;;;;;;;;;1777656;79;20987;-65
2022/08/08 08:24:07;;;;;;;11.38;9.03;;;;;;;;;;1786514;79;21101;-65
2022/08/08 08:26:33;;;;;;;10.65;8.68;;;;;;;;;;1775526;79;21076;-64
2022/08/08 08:29:01;;;;;;;10.45;8.58;;;;;;;;;;1776845;79;21063;-64
2022/08/08 08:31:27;;;;;;;10.13;7.20;;;;;;;;;;1778499;79;21526;-65
2022/08/08 08:33:54;;;;;;;14.35;8.30;;;;;;;;;;1774695;81;21047;-66
2022/08/08 08:36:20;;;;;;;13.00;9.10;;;;;;;;;;1780885;79;20999;-65
2022/08/08 08:38:47;;;;;;;58.60;46.40;;;;;;;;;;1773840;79;21023;-67
2022/08/08 08:41:13;;;;;;;42.20;34.30;;;;;;;;;;1775098;79;21051;-66
2022/08/08 08:43:43;;;;;;;23.47;14.85;;;;;;;;;;1771526;79;21051;-66
2022/08/08 08:46:10;;;;;;;13.15;9.68;;;;;;;;;;1773152;79;21576;-65
2022/08/08 08:48:37;;;;;;;12.53;10.25;;;;;;;;;;1773452;79;21032;-66
2022/08/08 08:51:04;;;;;;;12.90;9.70;;;;;;;;;;1787274;79;20981;-65
2022/08/08 08:53:37;;;;;;;13.65;9.60;;;;;;;;;;1772563;79;21054;-65
2022/08/08 08:56:09;;;;;;;14.47;8.35;;;;;;;;;;1762083;80;22196;-65
2022/08/08 08:58:40;;;;;;;11.93;8.45;;;;;;;;;;1760909;80;21552;-65
2022/08/08 09:01:08;;;;;;;11.38;9.28;;;;;;;;;;1758136;80;21542;-65
2022/08/08 09:03:34;;;;;;;13.90;10.18;;;;;;;;;;1759971;80;21054;-65
2022/08/08 09:06:00;;;;;;;13.75;10.20;;;;;;;;;;1763332;80;21072;-65
2022/08/08 09:08:27;;;;;;;11.70;8.10;;;;;;;;;;1762186;80;21595;-64
2022/08/08 09:10:53;;;;;;;10.70;8.15;;;;;;;;;;1763553;80;20995;-65
2022/08/08 09:13:20;;;;;;;10.78;8.15;;;;;;;;;;1738998;81;20991;-64
2022/08/08 09:15:47;;;;;;;10.60;7.75;;;;;;;;;;1754251;80;21058;-65
2022/08/08 09:18:18;;;;;;;10.68;8.95;;;;;;;;;;1762523;81;21022;-64
2022/08/08 09:20:43;;;;;;;11.38;8.65;;;;;;;;;;1764849;80;21085;-65
2022/08/08 09:23:09;;;;;;;8.95;6.95;;;;;;;;;;1766534;80;20989;-65
2022/08/08 09:25:35;;;;;;;10.58;7.92;;;;;;;;;;1750403;81;21058;-64
2022/08/08 09:28:02;;;;;;;10.30;8.43;;;;;;;;;;1747399;82;21117;-64
2022/08/08 09:30:29;;;;;;;10.90;8.05;;;;;;;;;;1751250;81;21644;-64
2022/08/08 09:32:56;;;;;;;10.10;8.90;;;;;;;;;;1738538;81;21027;-65
2022/08/08 09:35:24;;;;;;;9.93;8.53;;;;;;;;;;1741746;81;21077;-64
2022/08/08 09:37:52;;;;;;;12.15;7.83;;;;;;;;;;1733095;83;21070;-64
2022/08/08 09:40:24;;;;;;;10.48;7.20;;;;;;;;;;1742851;82;21022;-65
2022/08/08 09:43:08;;;;;;;9.83;8.70;;;;;;;;;;1750083;81;21097;-66
2022/08/08 09:45:40;;;;;;;22.20;17.73;;;;;;;;;;1759454;81;21062;-66
2022/08/08 09:48:06;;;;;;;22.90;19.60;;;;;;;;;;1754974;81;22187;-65
2022/08/08 09:50:32;;;;;;;16.12;12.35;;;;;;;;;;1731459;81;21047;-66
2022/08/08 09:52:58;;;;;;;13.05;9.18;;;;;;;;;;1762432;81;21117;-66
2022/08/08 09:55:25;;;;;;;14.35;10.70;;;;;;;;;;1782096;79;21501;-65
2022/08/08 09:57:54;;;;;;;12.15;10.55;;;;;;;;;;1777955;79;21041;-66
2022/08/08 10:00:20;;;;;;;12.85;8.83;;;;;;;;;;1774489;80;21031;-66
2022/08/08 10:02:48;;;;;;;11.45;9.50;;;;;;;;;;1782998;79;21026;-65
2022/08/08 10:05:18;;;;;;;14.43;10.82;;;;;;;;;;1777440;79;22123;-66
2022/08/08 10:07:52;;;;;;;12.85;10.85;;;;;;;;;;1774523;79;21516;-65
2022/08/08 10:10:26;;;;;;;11.90;8.50;;;;;;;;;;1771766;79;21026;-66
2022/08/08 10:12:52;;;;;;;11.03;8.25;;;;;;;;;;1782268;79;21044;-64
2022/08/08 10:15:19;;;;;;;11.15;9.60;;;;;;;;;;1776079;80;21058;-64
2022/08/08 10:17:46;;;;;;;12.68;9.00;;;;;;;;;;1781450;79;21035;-64
2022/08/08 10:20:12;;;;;;;11.10;8.25;;;;;;;;;;1778418;79;21108;-65
2022/08/08 10:22:42;;;;;;;12.20;8.58;;;;;;;;;;1775224;80;21036;-65
2022/08/08 10:25:08;;;;;;;10.78;9.55;;;;;;;;;;1743308;81;21062;-63
2022/08/08 10:27:41;;;;;;;12.78;10.05;;;;;;;;;;1744206;81;21024;-64
2022/08/08 10:30:07;;;;;;;10.40;7.92;;;;;;;;;;1743744;81;21022;-64
2022/08/08 10:32:34;;;;;;;10.23;7.22;;;;;;;;;;1742838;82;21574;-64
2022/08/08 10:35:02;;;;;;;11.88;8.70;;;;;;;;;;1743456;82;21136;-64
2022/08/08 10:37:29;;;;;;;9.95;7.22;;;;;;;;;;1743694;82;21004;-64
2022/08/08 10:39:55;;;;;;;9.73;7.62;;;;;;;;;;1743499;81;21048;-65
2022/08/08 10:42:22;;;;;;;8.95;7.97;;;;;;;;;;1742487;81;21060;-64
2022/08/08 10:44:48;;;;;;;8.23;6.30;;;;;;;;;;1742916;81;21116;-63
2022/08/08 10:47:18;;;;;;;8.43;6.78;;;;;;;;;;1743473;81;22279;-64
2022/08/08 10:49:50;;;;;;;10.03;7.62;;;;;;;;;;1744585;81;20990;-64
2022/08/08 10:52:26;;;;;;;10.43;7.12;;;;;;;;;;1743876;81;21108;-64
2022/08/08 10:54:56;;;;;;;12.23;7.67;;;;;;;;;;1739224;82;21125;-64
2022/08/08 10:57:22;;;;;;;9.93;8.30;;;;;;;;;;1735647;81;21056;-65
2022/08/08 10:59:52;;;;;;;7.97;6.50;;;;;;;;;;1749159;81;21583;-65
2022/08/08 11:02:23;;;;;;;14.47;8.60;;;;;;;;;;1744216;81;21064;-63
2022/08/08 11:04:49;;;;;;;9.48;7.40;;;;;;;;;;1736708;82;21121;-64
2022/08/08 11:07:28;;;;;;;9.70;7.22;;;;;;;;;;1737634;81;21069;-64
2022/08/08 11:09:55;;;;;;;10.48;7.75;;;;;;;;;;1737077;81;21528;-65
2022/08/08 11:12:21;;;;;;;10.18;8.23;;;;;;;;;;1711526;81;21268;-66
2022/08/08 11:14:49;;;;;;;10.60;9.03;;;;;;;;;;1729745;81;21065;-67
2022/08/08 11:17:16;;;;;;;12.80;8.30;;;;;;;;;;1730704;81;21121;-66
2022/08/08 11:19:42;;;;;;;11.63;7.75;;;;;;;;;;1735645;81;21060;-64
2022/08/08 11:22:13;;;;;;;10.48;8.90;;;;;;;;;;1738340;81;21061;-64
2022/08/08 11:24:38;;;;;;;9.03;8.08;;;;;;;;;;1736959;81;21057;-64
2022/08/08 11:27:04;;;;;;;9.50;6.65;;;;;;;;;;1735195;81;21053;-64
2022/08/08 11:29:30;;;;;;;10.00;7.37;;;;;;;;;;1736366;81;21033;-65
2022/08/08 11:31:56;;;;;;;12.40;7.37;;;;;;;;;;1728283;81;21101;-65
2022/08/08 11:34:22;;;;;;;9.65;8.33;;;;;;;;;;1738354;81;21121;-67
2022/08/08 11:36:48;;;;;;;9.08;8.10;;;;;;;;;;1741455;81;22328;-65
2022/08/08 11:39:14;;;;;;;10.98;7.53;;;;;;;;;;1736754;82;21618;-66
2022/08/08 11:41:42;;;;;;;10.93;7.47;;;;;;;;;;1736515;81;21120;-64
2022/08/08 11:44:09;;;;;;;11.45;8.28;;;;;;;;;;1736736;81;21085;-65
2022/08/08 11:46:35;;;;;;;11.15;8.90;;;;;;;;;;1736870;82;21093;-64
2022/08/08 11:49:03;;;;;;;10.20;7.60;;;;;;;;;;1734761;82;21146;-65
2022/08/08 11:51:29;;;;;;;9.73;7.33;;;;;;;;;;1736540;82;21188;-64
2022/08/08 11:53:55;;;;;;;10.55;8.88;;;;;;;;;;1733616;82;21104;-63
2022/08/08 11:56:22;;;;;;;9.40;7.47;;;;;;;;;;1735275;83;21066;-63
2022/08/08 11:58:48;;;;;;;8.95;7.17;;;;;;;;;;1717609;82;21597;-63
2022/08/08 12:01:15;;;;;;;8.48;7.05;;;;;;;;;;1717146;82;21036;-63
2022/08/08 12:03:46;;;;;;;11.05;7.53;;;;;;;;;;1712362;84;21123;-64
2022/08/08 12:06:13;;;;;;;9.83;6.58;;;;;;;;;;1727427;82;21091;-64
2022/08/08 12:08:40;;;;;;;8.68;7.12;;;;;;;;;;1713051;83;21048;-64
2022/08/08 12:11:10;;;;;;;8.03;6.75;;;;;;;;;;1714517;82;21023;-64
2022/08/08 12:13:37;;;;;;;11.33;8.15;;;;;;;;;;1712864;84;21016;-64
2022/08/08 12:16:07;;;;;;;9.18;7.03;;;;;;;;;;1726972;83;21059;-64
2022/08/08 12:18:35;;;;;;;8.58;6.70;;;;;;;;;;1736223;82;21542;-65
2022/08/08 12:21:01;;;;;;;9.15;7.60;;;;;;;;;;1715460;82;21066;-64
2022/08/08 12:23:28;;;;;;;9.95;6.70;;;;;;;;;;1712009;84;21577;-64
2022/08/08 12:25:54;;;;;;;8.75;6.78;;;;;;;;;;1723684;82;21224;-64
2022/08/08 12:28:20;;;;;;;10.08;7.95;;;;;;;;;;1684642;85;21116;-63
2022/08/08 12:30:46;;;;;;;8.80;7.10;;;;;;;;;;1684606;85;21171;-64
2022/08/08 12:33:17;;;;;;;11.30;7.83;;;;;;;;;;1685821;84;21020;-64
2022/08/08 12:35:44;;;;;;;9.03;7.20;;;;;;;;;;1703186;83;21044;-64
2022/08/08 12:38:12;;;;;;;9.55;8.53;;;;;;;;;;1737281;82;20996;-64
2022/08/08 12:40:40;;;;;;;10.32;6.72;;;;;;;;;;1730413;82;21032;-64
2022/08/08 12:43:05;;;;;;;7.00;6.25;;;;;;;;;;1712552;82;21001;-64
2022/08/08 12:45:34;;;;;;;8.63;7.20;;;;;;;;;;1713848;82;21059;-63
2022/08/08 12:48:01;;;;;;;8.13;6.70;;;;;;;;;;1736685;82;21036;-64
2022/08/08 12:50:29;;;;;;;9.75;6.08;;;;;;;;;;1735039;82;21510;-64
2022/08/08 12:52:55;;;;;;;7.90;5.95;;;;;;;;;;1710515;84;21111;-63
2022/08/08 12:55:21;;;;;;;7.12;5.97;;;;;;;;;;1726730;81;21104;-63
2022/08/08 12:57:47;;;;;;;8.03;6.75;;;;;;;;;;1734274;81;21024;-63
2022/08/08 13:00:14;;;;;;;9.98;6.45;;;;;;;;;;1707510;82;21073;-64
2022/08/08 13:02:41;;;;;;;7.37;6.17;;;;;;;;;;1741284;81;21053;-64
2022/08/08 13:05:09;;;;;;;9.13;6.92;;;;;;;;;;1746136;81;21604;-63
2022/08/08 13:07:40;;;;;;;9.15;6.12;;;;;;;;;;1733615;82;21073;-63
2022/08/08 13:10:07;;;;;;;7.92;6.20;;;;;;;;;;1737072;81;21140;-63
2022/08/08 13:12:35;;;;;;;8.45;6.45;;;;;;;;;;1751191;81;21021;-63
2022/08/08 13:15:03;;;;;;;7.17;6.30;;;;;;;;;;1736147;81;21069;-64
2022/08/08 13:17:31;;;;;;;13.08;8.23;;;;;;;;;;1734702;82;21163;-65
2022/08/08 13:19:57;;;;;;;12.73;11.48;;;;;;;;;;1734903;82;21085;-65
2022/08/08 13:22:23;;;;;;;7.33;5.92;;;;;;;;;;1736281;81;21054;-65
2022/08/08 13:24:49;;;;;;;9.03;5.15;;;;;;;;;;1746304;81;21033;-65
2022/08/08 13:27:16;;;;;;;6.65;5.95;;;;;;;;;;1735905;81;21045;-65
2022/08/08 13:29:50;;;;;;;6.15;4.97;;;;;;;;;;1742469;81;21072;-65
2022/08/08 13:32:15;;;;;;;6.33;5.53;;;;;;;;;;1749370;81;21101;-65
2022/08/08 13:34:41;;;;;;;6.72;6.03;;;;;;;;;;1738770;82;21640;-65
2022/08/08 13:37:08;;;;;;;8.38;5.83;;;;;;;;;;1736905;82;21213;-65
2022/08/08 13:39:34;;;;;;;7.58;5.85;;;;;;;;;;1737367;82;21552;-65
2022/08/08 13:42:01;;;;;;;9.45;6.28;;;;;;;;;;1739682;81;21048;-63
2022/08/08 13:44:28;;;;;;;6.78;5.72;;;;;;;;;;1732632;81;21045;-64
2022/08/08 13:46:55;;;;;;;6.80;5.22;;;;;;;;;;1725754;82;21558;-63
2022/08/08 13:49:24;;;;;;;6.75;5.30;;;;;;;;;;1721578;82;21101;-63
2022/08/08 13:51:52;;;;;;;24.65;22.15;;;;;;;;;;1685827;83;21099;-64
2022/08/08 13:54:22;;;;;;;38.85;29.50;;;;;;;;;;1712710;83;21561;-64
2022/08/08 13:56:58;;;;;;;12.23;9.38;;;;;;;;;;1733233;82;21001;-63
2022/08/08 13:59:28;;;;;;;8.90;5.70;;;;;;;;;;1731096;81;21064;-63
2022/08/08 14:01:55;;;;;;;8.80;5.37;;;;;;;;;;1735954;81;21132;-63
2022/08/08 14:04:22;;;;;;;10.13;6.08;;;;;;;;;;1723686;82;21056;-63
2022/08/08 14:06:48;;;;;;;6.83;6.08;;;;;;;;;;1735867;82;21058;-64
2022/08/08 14:09:16;;;;;;;6.85;4.95;;;;;;;;;;1736154;81;21052;-62
2022/08/08 14:11:42;;;;;;;5.97;5.28;;;;;;;;;;1709781;82;21055;-62
2022/08/08 14:14:08;;;;;;;6.60;5.78;;;;;;;;;;1741315;82;21047;-63
2022/08/08 14:16:35;;;;;;;7.22;4.97;;;;;;;;;;1714026;83;21098;-62
2022/08/08 14:19:01;;;;;;;6.60;5.28;;;;;;;;;;1717285;82;21096;-62
2022/08/08 14:21:32;;;;;;;6.50;5.15;;;;;;;;;;1748330;81;21034;-62
2022/08/08 14:23:58;;;;;;;7.20;5.20;;;;;;;;;;1746946;82;21333;-63
2022/08/08 14:26:25;;;;;;;8.13;6.97;;;;;;;;;;1748052;81;21067;-63
2022/08/08 14:28:52;;;;;;;6.20;5.28;;;;;;;;;;1746675;81;21482;-63
2022/08/08 14:31:18;;;;;;;6.20;5.08;;;;;;;;;;1743998;81;21187;-63
2022/08/08 14:33:46;;;;;;;6.78;4.80;;;;;;;;;;1750855;81;21058;-63
2022/08/08 14:36:14;;;;;;;8.38;5.37;;;;;;;;;;1751119;81;20995;-63
2022/08/08 14:38:40;;;;;;;5.70;4.90;;;;;;;;;;1748392;81;21007;-63
2022/08/08 14:41:14;;;;;;;5.55;4.80;;;;;;;;;;1768485;81;21553;-62
2022/08/08 14:43:44;;;;;;;6.00;4.95;;;;;;;;;;1745685;81;21031;-63
2022/08/08 14:46:12;;;;;;;5.47;4.37;;;;;;;;;;1747779;82;21015;-63
2022/08/08 14:48:39;;;;;;;5.50;4.53;;;;;;;;;;1751191;81;21034;-63
2022/08/08 14:51:06;;;;;;;6.35;5.65;;;;;;;;;;1765629;81;21055;-61
2022/08/08 14:53:35;;;;;;;6.12;5.53;;;;;;;;;;1765426;81;21039;-63
2022/08/08 14:56:01;;;;;;;13.38;8.78;;;;;;;;;;1745093;82;21075;-64
2022/08/08 14:58:27;;;;;;;23.18;15.63;;;;;;;;;;1753377;81;21115;-64
2022/08/08 15:00:54;;;;;;;13.55;11.93;;;;;;;;;;1741399;81;21561;-65
2022/08/08 15:03:20;;;;;;;8.70;6.58;;;;;;;;;;1745401;81;21038;-64
2022/08/08 15:05:46;;;;;;;8.48;6.12;;;;;;;;;;1749484;81;21028;-64
2022/08/08 15:08:15;;;;;;;6.10;4.87;;;;;;;;;;1744334;81;21118;-64
2022/08/08 15:10:42;;;;;;;6.75;4.47;;;;;;;;;;1751941;81;21071;-65